This is the latest recevied weather packets stored in our database for station/object AA8FM-13. If no packets are shown the sender has not sent any weather packets the latest 10 day(s).
| Time | Temp. | Humidity | Pressure | Rain* | Wind** | Luminosity | Snow |
|---|---|---|---|---|---|---|---|
| 1777823844 | 11.67° C | 49% | 1016.4 hPa | 0 mm | - | 654 W/m² | - |
| 1777823542 | 11.11° C | 48% | 1016.3 hPa | 0 mm | - | 639 W/m² | - |
| 1777823239 | 10.56° C | 50% | 1016.3 hPa | 0 mm | - | 637 W/m² | - |
| 1777822937 | 10.56° C | 51% | 1016.3 hPa | 0 mm | - | 310 W/m² | - |
| 1777822634 | 11.11° C | 51% | 1016.3 hPa | 0 mm | - | 642 W/m² | - |
| 1777822332 | 11.11° C | 53% | 1016.3 hPa | 0 mm | - | 618 W/m² | - |
| 1777822029 | 10.56° C | 48% | 1016.3 hPa | 0 mm | - | 616 W/m² | - |
| 1777821727 | 10.56° C | 48% | 1016.3 hPa | 0 mm | - | 600 W/m² | - |
| 1777821424 | 10.56° C | 49% | 1016.1 hPa | 0 mm | - | 595 W/m² | - |
| 1777821121 | 10° C | 55% | 1016.2 hPa | 0 mm | - | 601 W/m² | - |
| 1777820818 | 9.44° C | 52% | 1016.4 hPa | 0 mm | - | 597 W/m² | - |
| 1777820514 | 10.56° C | 51% | 1016.4 hPa | 0 mm | - | 579 W/m² | - |
| 1777820211 | 9.44° C | 53% | 1016.4 hPa | 0 mm | - | 589 W/m² | - |
| 1777819908 | 10° C | 54% | 1016.4 hPa | 0 mm | - | 593 W/m² | - |
| 1777819605 | 10° C | 59% | 1016.6 hPa | 0 mm | - | 120 W/m² | - |
| 1777819303 | 9.44° C | 56% | 1016.4 hPa | 0 mm | - | 563 W/m² | - |
| 1777819000 | 8.33° C | 59% | 1016.6 hPa | 0 mm | - | 563 W/m² | - |
| 1777818697 | 8.33° C | 63% | 1016.7 hPa | 0 mm | - | 117 W/m² | - |
| 1777818394 | 8.33° C | 63% | 1016.4 hPa | 0 mm | - | 113 W/m² | - |
| 1777818090 | 7.78° C | 65% | 1016.6 hPa | 0 mm | - | 116 W/m² | - |
| 1777817787 | 8.33° C | 66% | 1016.6 hPa | 0 mm | - | 142 W/m² | - |
| 1777817485 | 8.89° C | 63% | 1016.5 hPa | 0 mm | - | 330 W/m² | - |
| 1777817180 | 8.89° C | 64% | 1016.7 hPa | 0 mm | - | 452 W/m² | - |
| 1777816878 | 7.78° C | 66% | 1016.6 hPa | 0 mm | - | 433 W/m² | - |
| 1777816575 | 7.78° C | 67% | 1016.4 hPa | 0 mm | - | 417 W/m² | - |
* Rain latest hour (hover to see other rain measurements)
** Current wind speed in m/s (hover to see current wind gust speed)